Last 7 Days

Gordon Valley 3 (GV3)

Hourly Data | America/Los_Angeles
as of 8/25/19 1:48 PM PDT
Date & Time Temp (°F) RH (%) Dew Pt (°F) Wind Spd (mph) Wind Dir (°) Wind Gust (mph) Wind Gst Dir (°) Latest Rain (In) Solar Rad Tot Hr (Cal/cm2) Daily Rain (In) Daily Min Temp (°F) Daily Max Temp (°F)
8/25/19 - 1300 96.7 27 56.9 5.4 S | 172 9.1 SSE | 152 0.00 78 0.00 56.5 98.9
8/25/19 - 1200 93.7 30 57.5 4.8 SSE | 168 8.6 S | 187 0.00 72 0.00 56.5 96.6
8/25/19 - 1100 88.5 37 59.1 4.2 SSE | 148 6.8 SSE | 164 0.00 60 0.00 56.5 91.0
8/25/19 - 1000 84.7 42 59.1 3.2 S | 178 6.4 SE | 144 0.00 45 0.00 56.5 86.6
8/25/19 - 0900 77.4 52 58.3 2.1 SW | 215 4.3 SW | 214 0.00 17 0.00 56.5 82.1
8/25/19 - 0800 64.4 79 57.5 0.1 SW | 216 1.7 SW | 220 0.00 11 0.00 56.5 72.4
8/25/19 - 0700 56.8 91 54.3 0.0 N | 0 0.0 SW | 226 0.00 1 0.00 56.5 61.6
8/25/19 - 0600 57.8 90 54.8 0.1 SW | 220 1.6 SW | 216 0.00 0 0.00 57.1 61.6
8/25/19 - 0500 59.0 88 55.3 0.1 WSW | 252 2.2 WSW | 256 0.00 0 0.00 58.6 61.6
8/25/19 - 0400 59.4 85 55.0 0.0 N | 357 1.7 NNE | 17 0.00 0 0.00 59.1 61.6
8/25/19 - 0300 60.2 83 55.2 0.3 NNE | 27 2.7 NE | 38 0.00 0 0.00 60.0 61.6
8/25/19 - 0200 61.1 82 55.6 0.1 NNE | 28 2.6 NE | 41 0.00 0 0.00 60.3 61.6
8/25/19 - 0100 61.9 78 55.2 0.2 NNE | 24 2.6 NNE | 25 0.00 0 0.00 53.4 97.1
8/25/19 - 0000 63.7 73 55.0 0.3 NE | 42 3.1 NE | 44 0.00 0 0.00 53.4 97.1
8/24/19 - 2300 67.0 67 55.6 0.0 N | 10 0.9 N | 10 0.00 0 0.00 53.4 97.1
8/24/19 - 2200 71.2 58 55.4 0.4 E | 93 4.1 SE | 146 0.00 0 0.00 53.4 97.1
8/24/19 - 2100 77.2 44 53.7 1.9 N | 7 5.9 NNE | 12 0.00 0 0.00 53.4 97.1
8/24/19 - 2000 81.7 40 54.8 1.8 NNE | 20 6.8 NNW | 342 0.00 1 0.00 53.4 97.1
8/24/19 - 1900 89.3 32 55.1 3.4 SW | 236 10.1 SW | 231 0.00 16 0.00 53.4 97.1
8/24/19 - 1800 92.3 31 57.0 6.5 SW | 231 12.0 WSW | 237 0.00 34 0.00 53.4 97.1
8/24/19 - 1700 95.5 28 57.1 4.4 W | 264 16.5 NW | 310 0.00 51 0.00 53.4 97.1
8/24/19 - 1600 95.7 27 56.2 3.2 WNW | 298 8.4 NW | 324 0.00 65 0.00 53.4 96.7
8/24/19 - 1500 94.9 26 54.5 4.9 NW | 308 12.3 W | 276 0.00 74 0.00 53.4 96.3
8/24/19 - 1400 94.3 24 52.3 4.6 WSW | 248 11.5 SSW | 209 0.00 79 0.00 53.4 96.1
8/24/19 - 1300 91.1 26 51.3 3.5 WNW | 282 9.3 S | 173 0.00 78 0.00 53.4 91.9
8/24/19 - 1200 88.9 28 51.5 2.6 E | 82 6.3 SE | 133 0.00 71 0.00 53.4 90.8
8/24/19 - 1100 85.9 30 51.0 2.1 NNE | 12 6.3 N | 11 0.00 59 0.00 53.4 87.9
8/24/19 - 1000 82.2 36 52.4 1.1 WSW | 237 4.4 NNE | 24 0.00 45 0.00 53.4 84.3
8/24/19 - 0900 74.0 55 56.6 0.3 S | 177 3.4 SSW | 192 0.00 17 0.00 53.4 79.9
8/24/19 - 0800 60.8 88 57.1 0.1 SW | 231 2.1 SSW | 212 0.00 11 0.00 53.4 68.0
8/24/19 - 0700 53.7 98 53.2 0.0 NE | 37 1.6 NE | 40 0.00 1 0.00 53.4 59.7
8/24/19 - 0600 53.9 97 53.2 0.1 N | 11 2.1 N | 2 0.00 0 0.00 53.5 59.7
8/24/19 - 0500 55.0 95 53.7 0.1 WSW | 240 2.4 NNE | 33 0.00 0 0.00 54.3 59.7
8/24/19 - 0400 55.4 95 53.9 0.2 ENE | 69 2.9 NE | 34 0.00 0 0.00 54.6 59.7
8/24/19 - 0300 57.4 92 55.1 0.2 SW | 231 2.7 SW | 234 0.00 0 0.00 56.4 59.7
8/24/19 - 0200 58.2 91 55.5 0.6 SW | 220 3.9 SSW | 207 0.00 0 0.00 57.1 59.7
8/24/19 - 0100 61.6 85 57.2 1.0 SSE | 162 4.3 SE | 141 0.00 0 0.00 55.8 96.3
8/24/19 - 0000 62.6 83 57.5 1.2 SSE | 163 5.1 SSW | 194 0.00 0 0.00 55.8 96.3
8/23/19 - 2300 64.2 80 57.7 2.2 SSE | 162 5.4 SSW | 196 0.00 0 0.00 55.8 96.3
8/23/19 - 2200 67.2 73 58.1 2.4 SE | 139 5.8 SE | 141 0.00 0 0.00 55.8 96.3
8/23/19 - 2100 72.1 63 58.8 2.9 N | 0 8.1 - 0.00 0 0.00 55.8 96.3
8/23/19 - 2000 76.4 56 59.3 3.9 N | 0 8.8 N | 0 0.00 1 0.00 55.8 96.3
8/23/19 - 1900 84.3 44 60.3 3.8 ESE | 111 11.0 - 0.00 16 0.00 55.8 96.3
8/23/19 - 1800 90.8 36 60.2 4.7 WNW | 286 12.6 WSW | 251 0.00 35 0.00 55.8 96.3
8/23/19 - 1700 95.2 27 55.8 5.5 WSW | 243 11.1 SW | 234 0.00 52 0.00 55.8 96.3
8/23/19 - 1600 95.5 26 54.8 7.6 SW | 235 12.6 SW | 220 0.00 66 0.00 55.8 96.3
8/23/19 - 1500 94.7 26 54.9 9.3 SSW | 197 14.5 S | 185 0.00 76 0.00 55.8 96.3
8/23/19 - 1400 93.6 30 57.1 9.0 S | 182 14.2 S | 176 0.00 80 0.00 55.8 94.2
8/23/19 - 1300 92.6 31 57.8 8.4 SSW | 193 13.6 SSW | 207 0.00 79 0.00 55.8 93.8
8/23/19 - 1200 91.7 32 57.6 7.1 S | 180 11.5 SSW | 200 0.00 72 0.00 55.8 93.0
8/23/19 - 1100 89.6 34 57.9 4.9 S | 181 9.8 SSE | 165 0.00 61 0.00 55.8 90.9
8/23/19 - 1000 83.7 44 59.6 1.1 SSE | 151 4.4 SE | 141 0.00 46 0.00 55.8 87.2
8/23/19 - 0900 76.4 60 61.3 0.2 SSE | 167 2.6 S | 176 0.00 17 0.00 55.8 80.1
8/23/19 - 0800 63.9 87 59.7 0.0 N | 351 1.4 N | 351 0.00 11 0.00 55.8 71.0
8/23/19 - 0700 56.2 98 55.5 0.4 NNE | 19 2.9 NNE | 17 0.00 1 0.00 55.8 63.1
8/23/19 - 0600 56.4 96 55.5 0.2 NNE | 21 2.2 NNE | 12 0.00 0 0.00 55.8 63.1
8/23/19 - 0500 57.1 96 56.0 0.2 NE | 43 2.1 ENE | 61 0.00 0 0.00 56.6 63.1
8/23/19 - 0400 58.0 95 56.5 0.5 NNE | 27 2.6 S | 177 0.00 0 0.00 57.5 63.1
8/23/19 - 0300 59.3 92 56.8 0.3 NNE | 33 3.1 NNE | 32 0.00 0 0.00 58.6 63.1
8/23/19 - 0200 61.6 88 57.8 0.0 NE | 41 1.7 NE | 49 0.00 0 0.00 60.4 63.1
8/23/19 - 0100 64.1 82 58.7 0.1 SE | 140 2.7 SSE | 165 0.00 0 0.00 62.9 98.5
8/23/19 - 0000 65.7 79 59.1 0.1 S | 186 2.4 S | 188 0.00 0 0.00 62.9 98.5
8/22/19 - 2300 68.6 72 59.4 0.2 SSE | 151 2.6 SSW | 206 0.00 0 0.00 62.9 98.5
8/22/19 - 2200 71.7 67 60.2 0.2 N | 2 3.8 NNE | 13 0.00 0 0.00 62.9 98.5
8/22/19 - 2100 75.5 63 62.1 0.2 ESE | 120 2.4 ENE | 73 0.00 0 0.00 62.9 98.5
8/22/19 - 2000 83.7 49 62.0 1.5 WSW | 246 5.3 WSW | 249 0.00 1 0.00 62.9 98.5
8/22/19 - 1900 91.3 36 60.8 5.4 SW | 220 13.2 SW | 228 0.00 16 0.00 62.9 98.5
8/22/19 - 1800 93.3 35 61.8 8.0 SW | 235 14.0 WSW | 240 0.00 35 0.00 62.9 98.5
8/22/19 - 1700 96.5 33 62.9 7.8 SW | 225 16.2 SW | 236 0.00 51 0.00 62.9 98.5
8/22/19 - 1600 97.5 32 62.9 6.3 SSW | 203 11.1 SSW | 204 0.00 65 0.00 62.9 98.4
8/22/19 - 1500 96.1 37 65.3 5.7 SSW | 193 11.0 S | 184 0.00 75 0.00 62.9 97.2
8/22/19 - 1400 94.0 39 65.6 5.2 S | 176 11.6 S | 170 0.00 79 0.00 62.9 95.3
8/22/19 - 1300 91.7 42 65.2 5.0 S | 178 10.6 SSW | 201 0.00 78 0.00 62.9 93.8
8/22/19 - 1200 89.4 46 65.6 5.2 S | 188 9.0 S | 190 0.00 72 0.00 62.9 90.8
8/22/19 - 1100 86.1 51 65.7 3.9 S | 180 7.8 S | 178 0.00 60 0.00 62.9 88.8
8/22/19 - 1000 82.5 57 65.7 3.3 S | 176 6.6 SSE | 154 0.00 45 0.00 62.9 84.7
8/22/19 - 0900 77.8 66 65.4 1.8 S | 183 5.1 S | 176 0.00 18 0.00 62.9 80.3
8/22/19 - 0800 67.9 88 64.1 1.5 SSW | 210 4.4 SSW | 213 0.00 9 0.00 62.9 76.2
8/22/19 - 0700 63.4 93 61.4 0.3 E | 88 3.3 NW | 312 0.00 1 0.00 62.9 76.2
8/22/19 - 0600 64.0 90 60.9 0.0 ENE | 59 1.4 E | 84 0.00 0 0.00 62.9 76.2
8/22/19 - 0500 65.3 88 61.7 0.2 NE | 55 2.6 SSW | 206 0.00 0 0.00 64.5 76.2
8/22/19 - 0400 69.4 79 62.5 0.2 E | 91 3.4 ENE | 71 0.00 0 0.00 66.5 76.2
8/22/19 - 0300 72.2 72 62.8 2.3 NNE | 23 8.1 NNE | 12 0.00 0 0.00 68.9 76.2
8/22/19 - 0200 72.9 71 62.9 1.3 WSW | 250 5.1 SW | 232 0.00 0 0.00 70.5 76.2
8/22/19 - 0100 77.4 61 62.9 4.8 NW | 316 11.8 NNW | 331 0.00 0 0.00 52.8 96.9
8/22/19 - 0000 72.5 72 62.7 1.7 WNW | 282 7.4 NNW | 341 0.00 0 0.00 52.8 96.9
8/21/19 - 2300 75.7 64 62.6 1.7 NNE | 26 7.3 N | 354 0.00 0 0.00 52.8 96.9
8/21/19 - 2200 72.9 70 62.7 1.2 NNE | 24 6.3 N | 0 0.00 0 0.00 52.8 96.9
8/21/19 - 2100 74.3 68 63.1 0.4 ESE | 114 3.3 SE | 146 0.00 0 0.00 52.8 96.9
8/21/19 - 2000 81.0 54 62.9 0.8 SSE | 157 7.1 S | 187 0.00 1 0.00 52.8 96.9
8/21/19 - 1900 90.2 37 60.7 6.0 SSW | 199 11.5 S | 177 0.00 17 0.00 52.8 96.9
8/21/19 - 1800 92.7 30 56.5 7.4 SW | 220 14.0 WSW | 250 0.00 35 0.00 52.8 96.9
8/21/19 - 1700 93.9 27 55.4 8.3 SW | 231 15.2 SW | 230 0.00 52 0.00 52.8 96.9
8/21/19 - 1600 95.0 28 56.9 8.8 SW | 232 14.2 WSW | 242 0.00 66 0.00 52.8 96.9
8/21/19 - 1500 95.0 28 56.7 5.1 W | 277 12.5 SW | 225 0.00 77 0.00 52.8 96.9
8/21/19 - 1400 93.1 32 58.4 7.4 SSW | 195 12.3 SSW | 193 0.00 80 0.00 52.8 95.0
8/21/19 - 1300 88.6 38 59.8 5.1 S | 173 9.3 S | 188 0.00 77 0.00 52.8 91.7
8/21/19 - 1200 84.7 43 59.6 4.8 SSE | 157 8.6 SSE | 151 0.00 72 0.00 52.8 86.1
8/21/19 - 1100 80.8 47 59.0 4.7 SSE | 159 8.3 SSE | 163 0.00 62 0.00 52.8 82.7
8/21/19 - 1000 78.3 51 58.9 2.6 S | 173 5.4 S | 182 0.00 46 0.00 52.8 79.9
8/21/19 - 0900 72.4 61 58.2 0.2 S | 180 3.6 S | 184 0.00 18 0.00 52.8 76.3
8/21/19 - 0800 60.0 89 56.8 0.0 NNW | 333 1.2 NNW | 333 0.00 12 0.00 52.8 66.1
8/21/19 - 0700 53.1 98 52.7 0.2 NNE | 16 2.4 N | 5 0.00 1 0.00 52.8 54.8
8/21/19 - 0600 53.2 98 52.6 0.3 NNE | 33 2.7 NNE | 26 0.00 0 0.00 52.9 54.8
8/21/19 - 0500 53.4 97 52.6 0.3 NNE | 27 3.1 N | 3 0.00 0 0.00 53.0 54.8
8/21/19 - 0400 53.4 97 52.5 0.5 NNE | 26 3.6 NNE | 27 0.00 0 0.00 53.0 54.8
8/21/19 - 0300 54.2 96 53.2 0.2 NNE | 20 2.4 N | 354 0.00 0 0.00 53.7 54.8
8/21/19 - 0200 54.5 96 53.3 0.2 NNE | 28 3.1 NNE | 33 0.00 0 0.00 54.1 54.8
8/21/19 - 0100 55.5 94 53.7 0.0 N | 0 0.0 NE | 38 0.00 0 0.00 47.6 88.5
8/21/19 - 0000 56.5 92 54.1 0.0 N | 0 0.0 NNE | 15 0.00 0 0.00 47.6 88.5
8/20/19 - 2300 58.9 86 54.8 0.1 SE | 133 4.8 SSE | 168 0.00 0 0.00 47.6 88.5
8/20/19 - 2200 61.8 77 54.6 0.4 SSE | 157 3.6 S | 187 0.00 0 0.00 47.6 88.5
8/20/19 - 2100 65.7 70 55.6 0.9 S | 188 4.1 SSW | 208 0.00 0 0.00 47.6 88.5
8/20/19 - 2000 73.6 54 55.9 2.0 S | 179 8.3 SSW | 206 0.00 2 0.00 47.6 88.5
8/20/19 - 1900 78.2 45 55.3 5.9 WSW | 242 13.5 SW | 224 0.00 16 0.00 47.6 88.5
8/20/19 - 1800 83.9 41 57.5 7.6 WSW | 242 13.8 SW | 236 0.00 40 0.00 47.6 88.5
8/20/19 - 1700 84.8 40 57.8 8.7 SW | 236 15.0 SW | 234 0.00 48 0.00 47.6 88.5
8/20/19 - 1600 87.6 38 59.0 8.4 SW | 233 14.5 WSW | 241 0.00 68 0.00 47.6 88.5
8/20/19 - 1500 87.6 39 59.8 6.4 SSW | 209 11.5 SW | 229 0.00 78 0.00 47.6 88.4
8/20/19 - 1400 84.8 42 59.5 5.3 SSW | 208 11.0 SW | 218 0.00 82 0.00 47.6 86.6
8/20/19 - 1300 81.2 47 59.0 5.6 SSW | 193 11.3 S | 180 0.00 81 0.00 47.6 82.7
8/20/19 - 1200 76.8 53 58.4 4.1 SSE | 152 8.8 S | 175 0.00 74 0.00 47.6 80.3
8/20/19 - 1100 74.3 57 58.0 5.2 S | 178 10.1 S | 176 0.00 63 0.00 47.6 75.5
8/20/19 - 1000 71.0 62 57.4 3.2 S | 178 7.1 S | 170 0.00 47 0.00 47.6 73.2
8/20/19 - 0900 65.5 75 57.2 1.5 S | 191 4.4 S | 191 0.00 19 0.00 47.6 67.9
8/20/19 - 0800 56.5 97 55.5 0.0 SSE | 164 1.9 ENE | 65 0.00 13 0.00 47.6 62.1
8/20/19 - 0700 48.1 100 48.0 0.1 N | 11 1.9 N | 6 0.00 1 0.00 47.6 53.0
8/20/19 - 0600 48.3 99 48.1 0.1 NNE | 16 2.4 NNE | 14 0.00 0 0.00 47.6 53.0
8/20/19 - 0500 49.5 99 49.2 0.1 NNE | 26 2.1 NNE | 25 0.00 0 0.00 49.0 53.0
8/20/19 - 0400 50.3 99 50.0 0.1 NNE | 22 1.6 NNE | 20 0.00 0 0.00 49.8 53.0
8/20/19 - 0300 51.3 98 50.8 0.4 NNE | 25 2.7 NNE | 23 0.00 0 0.00 50.4 53.0
8/20/19 - 0200 51.9 96 50.8 0.1 SSE | 156 2.7 SSE | 155 0.00 0 0.00 50.9 53.0
8/20/19 - 0100 53.6 96 52.4 0.3 NNE | 29 2.4 NE | 42 0.00 0 0.00 47.9 86.9
8/20/19 - 0000 55.0 91 52.4 0.0 N | 352 1.4 NNW | 338 0.00 0 0.00 47.9 86.9
8/19/19 - 2300 58.0 88 54.6 0.1 SW | 218 2.2 SSE | 156 0.00 0 0.00 47.9 86.9
8/19/19 - 2200 61.6 81 55.8 0.4 E | 95 3.8 ESE | 118 0.00 0 0.00 47.9 86.9
8/19/19 - 2100 64.6 76 56.8 1.0 ESE | 112 3.8 SSE | 163 0.00 0 0.00 47.9 86.9
8/19/19 - 2000 70.6 63 57.3 2.0 SW | 224 7.1 WSW | 249 0.00 2 0.00 47.9 86.9
8/19/19 - 1900 79.8 48 58.5 3.9 WSW | 249 9.1 SW | 226 0.00 18 0.00 47.9 86.9
8/19/19 - 1800 84.9 41 58.7 3.8 W | 273 10.1 WSW | 242 0.00 38 0.00 47.9 86.9
8/19/19 - 1700 85.9 40 58.9 4.3 W | 268 12.0 WSW | 243 0.00 55 0.00 47.9 86.9
8/19/19 - 1600 85.3 42 59.5 7.2 SW | 218 14.5 S | 184 0.00 69 0.00 47.9 86.6
8/19/19 - 1500 82.3 45 58.9 9.0 SSW | 199 13.8 S | 190 0.00 79 0.00 47.9 83.6
8/19/19 - 1400 78.7 50 58.6 9.0 SSW | 194 14.0 SW | 222 0.00 84 0.00 47.9 81.3
8/19/19 - 1300 77.8 50 57.9 8.4 SSW | 198 14.2 S | 184 0.00 82 0.00 47.9 78.7
8/19/19 - 1200 75.4 53 57.1 6.8 SSW | 194 11.3 S | 190 0.00 76 0.00 47.9 77.1
8/19/19 - 1100 71.5 59 56.3 7.4 SSW | 192 11.8 S | 184 0.00 64 0.00 47.9 73.4
8/19/19 - 1000 68.2 66 56.5 3.6 S | 181 9.5 SSE | 157 0.00 47 0.00 47.9 70.4
8/19/19 - 0900 59.9 88 56.2 0.4 E | 79 3.4 NNE | 20 0.00 15 0.00 47.9 65.3
8/19/19 - 0800 51.6 100 51.6 0.0 N | 354 0.6 N | 354 0.00 4 0.00 47.9 54.8
8/19/19 - 0700 48.6 99 48.4 0.0 N | 0 0.0 NNW | 340 0.00 1 0.00 47.9 53.7
8/19/19 - 0600 49.6 98 49.2 0.2 SW | 223 2.7 NNE | 15 0.00 0 0.00 48.4 53.7
8/19/19 - 0500 50.2 97 49.4 0.1 N | 9 3.3 NE | 36 0.00 0 0.00 49.0 53.7
8/19/19 - 0400 51.9 97 51.2 0.3 NE | 39 3.1 NNE | 30 0.00 0 0.00 50.8 53.7
8/19/19 - 0300 51.4 98 50.7 0.5 NE | 50 3.8 SE | 135 0.00 0 0.00 50.8 53.7
8/19/19 - 0200 52.5 95 51.1 0.1 S | 186 2.2 S | 179 0.00 0 0.00 51.3 53.7
8/19/19 - 0100 54.5 94 52.7 0.4 NNE | 14 2.6 N | 354 0.00 0 0.00 47.1 83.9
8/19/19 - 0000 56.8 91 54.2 0.7 SSE | 165 3.3 SSE | 157 0.00 0 0.00 47.1 83.9
8/18/19 - 2300 58.0 87 54.0 1.3 S | 171 3.9 SSE | 161 0.00 0 0.00 47.1 83.9
8/18/19 - 2200 60.9 79 54.4 1.9 ESE | 112 4.4 E | 87 0.00 0 0.00 47.1 83.9
8/18/19 - 2100 64.4 69 54.2 2.3 SSW | 204 9.3 SW | 235 0.00 0 0.00 47.1 83.9
8/18/19 - 2000 66.9 66 55.1 7.5 SSW | 211 12.8 SSW | 213 0.00 2 0.00 47.1 83.9
8/18/19 - 1900 74.1 54 56.2 9.2 SW | 224 16.7 SW | 217 0.00 19 0.00 47.1 83.9
8/18/19 - 1800 78.0 49 57.2 10.0 SW | 222 18.5 WSW | 245 0.00 39 0.00 47.1 83.9
8/18/19 - 1700 80.5 46 58.0 9.8 SSW | 213 18.2 SW | 227 0.00 56 0.00 47.1 83.9
8/18/19 - 1600 81.1 43 56.7 9.8 SW | 222 15.3 SSW | 195 0.00 71 0.00 47.1 83.9
8/18/19 - 1500 82.6 39 54.8 9.8 SW | 224 16.7 SW | 219 0.00 80 0.00 47.1 83.9
8/18/19 - 1400 81.7 39 54.1 9.1 SW | 231 17.0 SW | 233 0.00 84 0.00 47.1 83.4
Max 97.5 100 65.7 10.0 - 18.5 - 0.00 84 0.00 70.5 98.9
Avg 72.5 64 56.9 2.9 - 6.9 - 0.00 26 - - -
Min 48.1 24 48.0 0.0 - 0.0 - 0.00 0 0.00 47.1 53.0
Total - - - - - - - 0.00 - - - -
Tip: Bookmark this page for easy future reference